Schefferville, Canada
Current Conditions -  °F | °C
As of 1:50 AM on Friday 28 Nov 2014 (Local Time) from CYKL Reporting Station
Light Snow Light Snow  
Wind Chill: -10°   Ceiling: 5500
Heat Index:   Visibility: 9mi
Dew Point: -2°   Wind: 6mph
Humidity: 85%   Direction: 300°WNW
Pressure: 29.93"   Gusts: NA
Location:  54.8°N, 66.83°W
Report Text: CYKL 280650Z AUTO 30005KT 9SM -SN OVC055 M17/M19 A2993 RMK SLP189
Loading
Personal Weather Stations






























Interactive Weather Map New forecast layout! Learn more

10-Day Weather Forecast

Advertisements
Track Severe Weather on mobile